Time;durP1;ratioP1;P1;durP2;ratioP2;P2;SDS_P1;SDS_P2;PMS_P1;PMS_P2;Temp;Humidity;BMP_temperature;BMP_pressure;BME280_temperature;BME280_humidity;BME280_pressure;Samples;Min_cycle;Max_cycle;Signal;HPM_P1;HPM_P2
2021/03/26 00:00:53;;;;;;;4.60;3.63;;;19.80;54.20;;;;;;4977205;28;20204;-77
2021/03/26 00:03:25;;;;;;;3.57;3.27;;;19.80;54.20;;;;;;4977760;28;20734;-77
2021/03/26 00:06:01;;;;;;;4.53;3.70;;;19.70;54.20;;;;;;4979399;28;20897;-77
2021/03/26 00:08:28;;;;;;;4.50;3.50;;;19.70;54.20;;;;;;4977379;28;20271;-78
2021/03/26 00:10:56;;;;;;;3.87;3.53;;;19.70;54.20;;;;;;4975829;28;20212;-78
2021/03/26 00:13:23;;;;;;;4.57;3.60;;;19.70;54.20;;;;;;4977197;28;20200;-78
2021/03/26 00:15:49;;;;;;;3.50;3.20;;;19.70;54.10;;;;;;4972460;28;20188;-78
2021/03/26 00:18:16;;;;;;;3.90;3.60;;;19.70;54.10;;;;;;4976966;28;20239;-78
2021/03/26 00:20:42;;;;;;;3.90;3.30;;;19.70;54.20;;;;;;4976938;28;20251;-78
2021/03/26 00:23:09;;;;;;;3.40;3.10;;;19.70;54.80;;;;;;4978514;28;20208;-78
2021/03/26 00:25:36;;;;;;;4.27;3.50;;;19.70;54.20;;;;;;4974504;28;20593;-77
2021/03/26 00:28:04;;;;;;;5.07;3.60;;;19.70;54.20;;;;;;4979068;28;20196;-77
2021/03/26 00:30:30;;;;;;;3.60;3.30;;;19.60;54.20;;;;;;4980110;28;20208;-77
2021/03/26 00:32:56;;;;;;;3.57;3.27;;;19.60;54.20;;;;;;4978742;28;20200;-77
2021/03/26 00:35:24;;;;;;;4.27;3.60;;;19.60;54.20;;;;;;4977854;28;20192;-77
2021/03/26 00:37:51;;;;;;;3.67;3.37;;;19.60;54.20;;;;;;4976659;28;20192;-77
2021/03/26 00:40:19;;;;;;;3.70;3.40;;;19.60;54.10;;;;;;4977997;28;20196;-77
2021/03/26 00:42:46;;;;;;;3.43;3.13;;;19.60;54.20;;;;;;4977773;28;20881;-77
2021/03/26 00:45:16;;;;;;;3.70;3.30;;;19.60;54.20;;;;;;4979807;28;20220;-77
2021/03/26 00:47:43;;;;;;;3.67;3.37;;;19.60;54.20;;;;;;4978738;28;20203;-77
2021/03/26 00:50:20;;;;;;;4.10;3.37;;;19.60;54.20;;;;;;4977949;28;20196;-77
2021/03/26 00:52:46;;;;;;;3.80;3.50;;;19.60;54.20;;;;;;4980517;28;20221;-77
2021/03/26 00:55:13;;;;;;;3.60;3.10;;;19.60;54.20;;;;;;4984127;28;20729;-77
2021/03/26 00:57:40;;;;;;;3.77;3.37;;;19.60;54.20;;;;;;4982385;28;20188;-77
2021/03/26 01:00:08;;;;;;;3.80;3.47;;;19.60;54.20;;;;;;4978164;28;20713;-77
2021/03/26 01:02:34;;;;;;;5.37;3.70;;;19.50;54.20;;;;;;4979325;28;20196;-77
2021/03/26 01:05:03;;;;;;;5.47;3.77;;;19.50;54.20;;;;;;4981464;28;20219;-77
2021/03/26 01:07:29;;;;;;;4.37;3.13;;;19.50;54.20;;;;;;4980046;28;20207;-77
2021/03/26 01:09:55;;;;;;;5.77;3.40;;;19.50;54.10;;;;;;4977975;28;20631;-77
2021/03/26 01:12:21;;;;;;;4.03;3.63;;;19.50;54.20;;;;;;4981252;28;20400;-77
2021/03/26 01:14:48;;;;;;;3.87;3.47;;;19.50;54.20;;;;;;4980811;28;20929;-76
2021/03/26 01:17:14;;;;;;;3.80;3.40;;;19.50;54.20;;;;;;4981257;28;20267;-77
2021/03/26 01:19:42;;;;;;;3.50;3.20;;;19.50;54.20;;;;;;4982333;28;20196;-76
2021/03/26 01:22:12;;;;;;;3.57;3.27;;;19.50;54.20;;;;;;4980232;28;20213;-77
2021/03/26 01:24:38;;;;;;;3.57;3.27;;;19.50;54.20;;;;;;4982892;28;20204;-77
2021/03/26 01:27:05;;;;;;;4.27;3.87;;;19.40;54.10;;;;;;4979962;28;20266;-78
2021/03/26 01:29:31;;;;;;;3.70;3.40;;;19.40;54.10;;;;;;4975600;28;20871;-77
2021/03/26 01:31:57;;;;;;;4.27;3.83;;;19.50;54.20;;;;;;4981820;28;20830;-78
2021/03/26 01:34:24;;;;;;;5.50;4.37;;;19.40;54.20;;;;;;4981358;28;20197;-79
2021/03/26 01:36:50;;;;;;;3.90;3.43;;;19.40;54.10;;;;;;4978869;28;20226;-79
2021/03/26 01:39:17;;;;;;;4.83;3.80;;;19.40;54.10;;;;;;4983109;28;20207;-79
2021/03/26 01:41:48;;;;;;;4.50;3.47;;;19.40;54.20;;;;;;4980363;28;20205;-79
2021/03/26 01:44:19;;;;;;;4.40;3.40;;;19.40;54.10;;;;;;4988432;28;20211;-79
2021/03/26 01:46:47;;;;;;;4.10;3.63;;;19.40;54.20;;;;;;4978084;28;20244;-79
2021/03/26 01:49:14;;;;;;;3.87;3.40;;;19.40;54.20;;;;;;4982815;28;20215;-79
2021/03/26 01:51:45;;;;;;;3.53;3.23;;;19.40;54.20;;;;;;4980941;28;20196;-79
2021/03/26 01:54:15;;;;;;;4.90;3.70;;;19.30;54.10;;;;;;4979628;28;20494;-80
2021/03/26 01:56:41;;;;;;;4.00;3.60;;;19.30;54.20;;;;;;4982684;28;20199;-79
2021/03/26 01:59:07;;;;;;;4.17;3.77;;;19.40;54.30;;;;;;4982185;28;20196;-80
2021/03/26 02:01:40;;;;;;;4.30;3.77;;;19.30;54.20;;;;;;4983007;28;20660;-79
2021/03/26 02:04:07;;;;;;;4.10;3.70;;;19.30;54.20;;;;;;4978121;28;20207;-79
2021/03/26 02:06:39;;;;;;;3.87;3.57;;;19.30;54.30;;;;;;4978734;28;20267;-79
2021/03/26 02:09:16;;;;;;;4.17;3.20;;;19.30;54.20;;;;;;4980279;28;20192;-79
2021/03/26 02:12:11;;;;;;;3.50;3.20;;;19.30;54.20;;;;;;4980852;28;20222;-79
2021/03/26 02:14:40;;;;;;;4.70;3.83;;;19.30;54.20;;;;;;4979877;28;20740;-79
2021/03/26 02:17:07;;;;;;;3.83;3.23;;;19.30;54.30;;;;;;4978961;28;20201;-79
2021/03/26 02:19:46;;;;;;;3.57;3.27;;;19.30;54.20;;;;;;4982849;28;20212;-79
2021/03/26 02:22:14;;;;;;;3.40;3.10;;;19.30;54.20;;;;;;4981480;28;20201;-80
2021/03/26 02:24:42;;;;;;;4.17;3.77;;;19.30;54.20;;;;;;4979858;28;20227;-78
2021/03/26 02:27:16;;;;;;;3.03;2.80;;;19.30;54.30;;;;;;4977044;28;20892;-78
2021/03/26 02:29:43;;;;;;;4.03;3.30;;;19.20;54.20;;;;;;4979191;28;20199;-78
2021/03/26 02:32:24;;;;;;;3.80;3.40;;;19.20;54.20;;;;;;4981172;28;20257;-79
2021/03/26 02:35:12;;;;;;;4.00;3.00;;;19.20;54.20;;;;;;4980840;28;20378;-79
2021/03/26 02:38:02;;;;;;;3.77;3.37;;;19.20;54.20;;;;;;4979481;28;20212;-79
2021/03/26 02:40:40;;;;;;;3.67;3.37;;;19.20;54.10;;;;;;4981134;28;20205;-79
2021/03/26 02:43:21;;;;;;;4.40;3.40;;;19.20;54.10;;;;;;4981565;28;20188;-79
2021/03/26 02:45:56;;;;;;;4.17;3.77;;;19.20;54.20;;;;;;4983982;28;20223;-79
2021/03/26 02:48:32;;;;;;;3.50;3.20;;;19.20;54.10;;;;;;4979843;28;20203;-79
2021/03/26 02:51:06;;;;;;;4.10;3.70;;;19.20;54.10;;;;;;4982115;28;20192;-79
2021/03/26 02:53:54;;;;;;;5.83;3.73;;;19.20;54.80;;;;;;4982142;28;20520;-79
2021/03/26 02:56:44;;;;;;;4.83;3.60;;;19.20;54.20;;;;;;4974485;28;20205;-79
2021/03/26 02:59:17;;;;;;;4.97;3.20;;;19.20;54.20;;;;;;4977997;28;20220;-79
2021/03/26 03:01:51;;;;;;;4.10;3.70;;;19.10;54.10;;;;;;4979325;28;20208;-78
2021/03/26 03:04:19;;;;;;;4.37;3.97;;;19.10;54.10;;;;;;4978665;28;20915;-78
2021/03/26 03:06:52;;;;;;;4.27;3.87;;;19.20;54.20;;;;;;4978197;28;20976;-78
2021/03/26 03:09:20;;;;;;;4.27;3.40;;;19.10;54.10;;;;;;4981810;28;20205;-78
2021/03/26 03:11:55;;;;;;;4.27;3.83;;;19.10;54.10;;;;;;4977406;28;20196;-78
2021/03/26 03:14:27;;;;;;;4.33;3.93;;;19.10;54.30;;;;;;4978888;28;20196;-78
2021/03/26 03:17:13;;;;;;;3.97;3.67;;;19.10;54.20;;;;;;4975149;28;20244;-77
2021/03/26 03:19:49;;;;;;;3.87;3.30;;;19.10;54.10;;;;;;4971173;28;20189;-77
2021/03/26 03:23:01;;;;;;;4.10;3.70;;;19.10;54.20;;;;;;4978474;28;20201;-78
2021/03/26 03:25:28;;;;;;;5.80;4.07;;;19.10;54.10;;;;;;4969596;28;20263;-79
2021/03/26 03:28:00;;;;;;;3.90;3.53;;;19.10;54.10;;;;;;4971140;28;20212;-78
2021/03/26 03:30:42;;;;;;;4.77;4.03;;;19.10;54.20;;;;;;4974481;28;20208;-78
2021/03/26 03:33:27;;;;;;;4.20;3.80;;;19.10;54.20;;;;;;4978601;28;20192;-78
2021/03/26 03:36:22;;;;;;;3.93;3.53;;;19.00;54.10;;;;;;4992522;28;20550;-78
2021/03/26 03:38:53;;;;;;;4.00;3.60;;;19.10;54.10;;;;;;4979884;28;20208;-78
2021/03/26 03:41:24;;;;;;;4.10;3.70;;;19.00;54.10;;;;;;4978891;28;20314;-77
2021/03/26 03:44:10;;;;;;;4.43;4.03;;;19.00;54.10;;;;;;4979970;28;20200;-79
2021/03/26 03:46:54;;;;;;;4.20;3.87;;;19.00;54.10;;;;;;4978297;28;20228;-77
2021/03/26 03:49:52;;;;;;;5.27;4.10;;;19.00;54.10;;;;;;4973990;28;20197;-77
2021/03/26 03:52:40;;;;;;;5.27;4.03;;;19.00;54.10;;;;;;4975307;28;20233;-77
2021/03/26 03:55:40;;;;;;;4.57;4.13;;;19.00;54.10;;;;;;4974311;28;20201;-77
2021/03/26 03:58:18;;;;;;;5.33;4.67;;;19.00;54.10;;;;;;4975835;28;20587;-78
2021/03/26 04:01:12;;;;;;;4.87;4.37;;;19.00;54.10;;;;;;4980499;28;20199;-77
2021/03/26 04:03:42;;;;;;;5.30;4.70;;;19.00;54.10;;;;;;4979143;28;20695;-77
2021/03/26 04:06:36;;;;;;;6.10;4.63;;;19.00;54.10;;;;;;4974614;28;20251;-77
2021/03/26 04:09:13;;;;;;;5.83;4.40;;;19.00;54.10;;;;;;4979343;28;20208;-77
2021/03/26 04:11:52;;;;;;;5.30;4.63;;;19.00;54.10;;;;;;4979262;28;20215;-77
2021/03/26 04:14:24;;;;;;;5.20;4.50;;;19.00;54.10;;;;;;4975988;28;20204;-77
2021/03/26 04:17:00;;;;;;;5.07;4.57;;;19.00;54.10;;;;;;4977487;28;20196;-77
2021/03/26 04:19:33;;;;;;;5.73;5.07;;;19.00;54.00;;;;;;4979239;28;20338;-77
2021/03/26 04:22:10;;;;;;;5.67;4.73;;;19.00;53.90;;;;;;4970835;28;20196;-77
2021/03/26 04:24:43;;;;;;;5.53;5.03;;;19.00;54.00;;;;;;4975192;28;20208;-77
2021/03/26 04:27:26;;;;;;;5.77;4.93;;;18.90;54.00;;;;;;4974227;28;20711;-77
2021/03/26 04:30:19;;;;;;;6.73;5.00;;;19.00;54.00;;;;;;4975019;28;20204;-76
2021/03/26 04:32:47;;;;;;;4.80;4.40;;;19.00;54.00;;;;;;4978081;28;20200;-78
2021/03/26 04:35:15;;;;;;;5.27;4.63;;;18.90;54.00;;;;;;4975165;28;20211;-79
2021/03/26 04:38:01;;;;;;;5.40;4.70;;;18.90;53.90;;;;;;4980899;28;20449;-79
2021/03/26 04:40:34;;;;;;;5.07;4.47;;;18.90;53.90;;;;;;4978053;28;20620;-78
2021/03/26 04:43:24;;;;;;;5.43;4.77;;;18.90;54.00;;;;;;4981854;28;20196;-78
2021/03/26 04:46:10;;;;;;;5.57;5.07;;;18.90;54.00;;;;;;4982608;28;20216;-79
2021/03/26 04:48:50;;;;;;;5.53;4.80;;;18.90;54.00;;;;;;4980143;28;20274;-79
2021/03/26 04:51:27;;;;;;;5.77;5.27;;;18.90;54.00;;;;;;4978287;28;20736;-79
2021/03/26 04:53:59;;;;;;;5.50;5.00;;;18.90;53.90;;;;;;4979124;28;20350;-78
2021/03/26 04:56:32;;;;;;;5.13;4.73;;;18.90;53.90;;;;;;4978985;28;20211;-78
2021/03/26 04:59:05;;;;;;;6.07;5.53;;;18.90;53.90;;;;;;4977553;28;20243;-79
2021/03/26 05:01:32;;;;;;;7.10;5.33;;;18.90;53.90;;;;;;4980032;28;20189;-79
2021/03/26 05:04:06;;;;;;;7.53;5.53;;;18.90;53.90;;;;;;4978376;28;20220;-78
2021/03/26 05:06:42;;;;;;;6.30;5.60;;;18.90;53.90;;;;;;4976064;28;20236;-79
2021/03/26 05:09:26;;;;;;;7.43;5.63;;;18.80;53.90;;;;;;4977244;28;20192;-79
2021/03/26 05:11:59;;;;;;;6.93;5.63;;;18.80;53.90;;;;;;4979536;28;20205;-79
2021/03/26 05:14:37;;;;;;;7.13;5.57;;;18.90;53.90;;;;;;4976566;28;20204;-79
2021/03/26 05:17:16;;;;;;;6.13;5.53;;;18.80;53.90;;;;;;4974455;28;20193;-79
2021/03/26 05:20:11;;;;;;;6.97;5.60;;;18.80;53.80;;;;;;4976766;28;20656;-79
2021/03/26 05:22:48;;;;;;;6.13;5.53;;;18.90;53.90;;;;;;4981252;28;20216;-79
2021/03/26 05:25:26;;;;;;;6.63;6.03;;;18.80;53.80;;;;;;4974796;28;20764;-79
2021/03/26 05:27:54;;;;;;;6.53;5.93;;;18.80;53.90;;;;;;4978663;28;20200;-78
2021/03/26 05:30:27;;;;;;;5.63;5.13;;;18.80;53.80;;;;;;4978086;28;20196;-79
2021/03/26 05:33:26;;;;;;;7.30;5.67;;;18.80;53.80;;;;;;4978624;28;20207;-79
2021/03/26 05:36:11;;;;;;;6.03;5.23;;;18.80;53.80;;;;;;4977031;28;20562;-78
2021/03/26 05:38:55;;;;;;;6.23;5.63;;;18.80;53.80;;;;;;4979848;28;20193;-78
2021/03/26 05:41:52;;;;;;;6.13;5.53;;;18.80;53.80;;;;;;4980599;28;20201;-79
2021/03/26 05:44:42;;;;;;;6.07;5.47;;;18.80;53.80;;;;;;4982665;28;20664;-79
2021/03/26 05:47:33;;;;;;;5.50;5.00;;;18.80;53.80;;;;;;4978006;28;20846;-78
2021/03/26 05:50:22;;;;;;;6.07;5.10;;;18.80;53.80;;;;;;4982735;28;20878;-78
2021/03/26 05:52:57;;;;;;;5.70;5.10;;;18.80;53.80;;;;;;4978544;28;20247;-80
2021/03/26 05:55:48;;;;;;;6.20;5.60;;;18.80;53.80;;;;;;4978665;28;20201;-78
2021/03/26 05:58:36;;;;;;;8.17;6.07;;;18.80;53.90;;;;;;4974322;28;20215;-80
2021/03/26 06:01:08;;;;;;;6.20;5.60;;;18.80;53.90;;;;;;4982702;28;20192;-80
2021/03/26 06:04:16;;;;;;;6.77;5.97;;;18.80;53.90;;;;;;4983372;28;20200;-79
2021/03/26 06:07:01;;;;;;;8.53;6.33;;;18.80;53.90;;;;;;4976038;28;20224;-77
2021/03/26 06:09:57;;;;;;;6.20;5.40;;;18.80;53.90;;;;;;4980968;28;20188;-80
2021/03/26 06:12:50;;;;;;;6.60;5.93;;;18.80;53.90;;;;;;4977490;28;20208;-77
2021/03/26 06:15:22;;;;;;;7.40;5.67;;;18.80;53.90;;;;;;4977808;28;20807;-78
2021/03/26 06:17:54;;;;;;;7.37;6.27;;;18.80;53.90;;;;;;4978890;28;20236;-80
2021/03/26 06:21:00;;;;;;;8.10;5.77;;;18.80;53.90;;;;;;4990141;28;20407;-78
2021/03/26 06:23:47;;;;;;;10.33;5.90;;;18.80;54.20;;;;;;4998120;28;20699;-83
2021/03/26 06:26:32;;;;;;;9.80;5.40;;;18.80;54.40;;;;;;4983585;28;20220;-77
2021/03/26 06:29:26;;;;;;;8.23;6.43;;;18.90;54.60;;;;;;4985600;28;20214;-78
2021/03/26 06:32:11;;;;;;;10.30;6.90;;;19.00;54.50;;;;;;4983359;28;20211;-77
2021/03/26 06:35:07;;;;;;;15.97;8.43;;;19.00;54.30;;;;;;4981566;28;20207;-79
2021/03/26 06:37:47;;;;;;;21.47;10.53;;;19.10;54.30;;;;;;4978879;28;20222;-79
2021/03/26 06:40:20;;;;;;;25.00;10.70;;;19.10;54.20;;;;;;4978670;28;20704;-79
2021/03/26 06:42:50;;;;;;;18.47;11.53;;;19.20;53.90;;;;;;4981716;28;20196;-76
2021/03/26 06:45:33;;;;;;;17.30;10.43;;;19.20;53.70;;;;;;4979047;28;20209;-76
2021/03/26 06:48:18;;;;;;;17.57;10.57;;;19.20;53.50;;;;;;4980552;28;20196;-76
2021/03/26 06:50:57;;;;;;;21.80;11.03;;;19.10;53.10;;;;;;4978080;28;20631;-78
2021/03/26 06:53:36;;;;;;;18.37;11.00;;;19.10;53.20;;;;;;4971436;28;20215;-78
2021/03/26 06:56:17;;;;;;;17.87;11.80;;;19.10;53.00;;;;;;4980808;28;20192;-77
2021/03/26 06:58:56;;;;;;;17.63;12.87;;;19.10;52.80;;;;;;4980005;28;20189;-77
2021/03/26 07:01:54;;;;;;;17.40;13.57;;;19.10;52.60;;;;;;4993101;28;20199;-79
2021/03/26 07:04:44;;;;;;;19.03;13.73;;;19.10;52.60;;;;;;4988132;28;20244;-78
2021/03/26 07:07:32;;;;;;;18.67;13.93;;;19.10;52.70;;;;;;4995248;28;20231;-77
2021/03/26 07:10:37;;;;;;;18.43;14.40;;;19.10;52.60;;;;;;4975418;28;20476;-77
2021/03/26 07:13:22;;;;;;;24.17;14.50;;;19.10;52.60;;;;;;4978072;28;20195;-77
2021/03/26 07:16:29;;;;;;;18.20;13.50;;;19.10;52.40;;;;;;4980908;28;20604;-77
2021/03/26 07:19:29;;;;;;;18.27;13.73;;;19.10;52.20;;;;;;4994546;28;20313;-78
2021/03/26 07:22:51;;;;;;;17.67;14.43;;;19.10;52.10;;;;;;4977252;28;20197;-78
2021/03/26 07:25:27;;;;;;;42.47;18.20;;;19.10;51.90;;;;;;4976639;28;20200;-77
2021/03/26 07:28:13;;;;;;;48.30;19.17;;;19.10;52.20;;;;;;4976681;28;20199;-80
2021/03/26 07:31:15;;;;;;;47.63;20.33;;;19.20;52.50;;;;;;4981811;28;20196;-80
2021/03/26 07:33:56;;;;;;;50.80;20.00;;;19.20;53.10;;;;;;4970704;28;20192;-81
2021/03/26 07:36:25;;;;;;;44.67;19.20;;;19.30;53.30;;;;;;4977553;28;20226;-78
2021/03/26 07:39:21;;;;;;;47.43;18.03;;;19.30;52.40;;;;;;4978007;28;20196;-77
2021/03/26 07:42:25;;;;;;;42.43;18.27;;;19.30;52.10;;;;;;4975139;28;20212;-76
2021/03/26 07:45:01;;;;;;;33.30;17.30;;;19.30;51.90;;;;;;4973397;28;20240;-77
2021/03/26 07:47:45;;;;;;;26.97;16.60;;;19.20;51.50;;;;;;4976486;28;20240;-77
2021/03/26 07:50:31;;;;;;;22.43;15.57;;;19.30;51.30;;;;;;4977019;28;20223;-77
2021/03/26 07:53:18;;;;;;;25.63;16.07;;;19.20;51.00;;;;;;4975868;28;20227;-77
2021/03/26 07:55:54;;;;;;;22.37;14.77;;;19.20;50.90;;;;;;4977141;28;20196;-76
2021/03/26 07:58:39;;;;;;;20.50;13.80;;;19.30;50.80;;;;;;4976922;28;20200;-77
2021/03/26 08:01:40;;;;;;;19.73;14.13;;;19.20;50.70;;;;;;4973851;28;20205;-78
2021/03/26 08:04:22;;;;;;;19.37;14.20;;;19.20;50.70;;;;;;4976130;28;20203;-77
2021/03/26 08:07:26;;;;;;;17.23;13.43;;;19.20;50.60;;;;;;4975189;28;20721;-76
2021/03/26 08:10:28;;;;;;;15.90;13.23;;;19.20;50.50;;;;;;4972356;28;20679;-77
2021/03/26 08:13:48;;;;;;;15.13;12.73;;;19.20;50.30;;;;;;4976884;28;20203;-79
2021/03/26 08:16:53;;;;;;;13.73;11.93;;;19.20;50.50;;;;;;4972288;28;20227;-77
2021/03/26 08:19:41;;;;;;;14.57;11.47;;;19.20;50.60;;;;;;4971904;28;20359;-76
2021/03/26 08:22:17;;;;;;;14.27;12.47;;;19.20;50.90;;;;;;4976624;28;20213;-78
2021/03/26 08:25:27;;;;;;;23.77;12.67;;;19.20;50.80;;;;;;4976604;28;20635;-84
2021/03/26 08:28:17;;;;;;;34.37;14.03;;;19.30;51.90;;;;;;4971147;28;20736;-85
2021/03/26 08:30:47;;;;;;;31.63;13.37;;;19.50;52.50;;;;;;4981882;28;20600;-83
2021/03/26 08:33:27;;;;;;;27.30;13.43;;;19.60;52.90;;;;;;4977944;28;20653;-86
2021/03/26 08:36:13;;;;;;;28.10;13.53;;;19.70;52.80;;;;;;4979937;28;20204;-84
2021/03/26 08:39:20;;;;;;;26.17;13.70;;;19.80;52.80;;;;;;4980898;28;20693;-83
2021/03/26 08:41:54;;;;;;;21.50;12.53;;;19.80;52.90;;;;;;4982636;28;20215;-83
2021/03/26 08:44:24;;;;;;;21.50;12.00;;;19.90;52.40;;;;;;4979088;28;20563;-84
2021/03/26 08:46:55;;;;;;;16.90;11.67;;;20.00;52.40;;;;;;4984510;28;21034;-83
2021/03/26 08:49:56;;;;;;;17.53;11.07;;;20.10;52.40;;;;;;4978801;28;20203;-86
2021/03/26 08:52:45;;;;;;;15.33;9.97;;;20.10;52.00;;;;;;4982996;28;20217;-85
2021/03/26 08:55:33;;;;;;;19.57;9.93;;;20.20;51.70;;;;;;4980022;28;20199;-83
2021/03/26 08:58:45;;;;;;;15.83;9.90;;;20.20;51.20;;;;;;4984375;28;20720;-86
2021/03/26 09:01:45;;;;;;;14.50;9.70;;;20.30;51.00;;;;;;4982038;28;20207;-84
2021/03/26 09:04:42;;;;;;;14.03;9.00;;;20.40;50.90;;;;;;4979816;28;20253;-84
2021/03/26 09:07:18;;;;;;;11.27;9.43;;;20.50;51.70;;;;;;4982197;28;20259;-84
2021/03/26 09:10:06;;;;;;;11.00;9.13;;;20.50;50.70;;;;;;4981728;28;20635;-83
2021/03/26 09:12:54;;;;;;;12.70;8.20;;;20.60;50.60;;;;;;4984235;28;20203;-84
2021/03/26 09:15:55;;;;;;;10.63;8.07;;;20.60;50.90;;;;;;4984670;28;20576;-83
2021/03/26 09:18:57;;;;;;;12.27;7.37;;;20.70;50.90;;;;;;4985663;28;20231;-85
2021/03/26 09:21:42;;;;;;;14.17;7.60;;;20.70;50.40;;;;;;4983925;28;20291;-86
2021/03/26 09:24:27;;;;;;;10.43;7.13;;;20.70;50.40;;;;;;4984413;28;20200;-86
2021/03/26 09:27:17;;;;;;;8.67;7.20;;;20.80;50.10;;;;;;4983325;28;20213;-86
2021/03/26 09:30:01;;;;;;;7.83;6.37;;;20.80;49.70;;;;;;4985249;28;20216;-86
2021/03/26 09:32:55;;;;;;;9.73;6.57;;;20.90;49.70;;;;;;4982667;28;20201;-86
2021/03/26 09:35:40;;;;;;;6.63;5.77;;;20.90;49.90;;;;;;4977032;28;20787;-85
2021/03/26 09:38:09;;;;;;;6.93;5.83;;;21.00;49.30;;;;;;4981956;28;20204;-85
2021/03/26 09:40:56;;;;;;;6.13;5.43;;;21.00;49.20;;;;;;4983419;28;20693;-85
2021/03/26 09:43:41;;;;;;;8.43;5.23;;;21.10;49.30;;;;;;4984299;28;20207;-81
2021/03/26 09:46:12;;;;;;;8.67;5.33;;;21.10;49.30;;;;;;4984843;28;20216;-83
2021/03/26 09:49:01;;;;;;;6.67;4.63;;;21.20;49.50;;;;;;4984637;28;20271;-89
2021/03/26 09:51:42;;;;;;;7.03;4.33;;;21.20;49.70;;;;;;5001903;28;20766;-86
2021/03/26 09:54:21;;;;;;;7.20;4.50;;;21.30;49.70;;;;;;4989503;28;20205;-86
2021/03/26 09:57:08;;;;;;;6.73;4.00;;;21.40;49.40;;;;;;4989346;28;20549;-91
2021/03/26 10:00:17;;;;;;;6.53;4.50;;;21.40;49.30;;;;;;4986889;28;20208;-86
2021/03/26 10:03:25;;;;;;;6.43;3.37;;;21.40;49.20;;;;;;4990024;28;20204;-85
2021/03/26 10:05:59;;;;;;;5.40;3.50;;;21.50;49.40;;;;;;4993086;28;20200;-85
2021/03/26 10:11:33;;;;;;;5.57;3.37;;;21.50;48.70;;;;;;4984874;28;20867;-84
2021/03/26 10:14:16;;;;;;;3.67;2.70;;;21.50;48.60;;;;;;4987774;28;20272;-91
2021/03/26 10:17:11;;;;;;;5.97;2.87;;;21.60;48.60;;;;;;4985490;28;20220;-86
2021/03/26 10:19:39;;;;;;;11.40;2.60;;;21.60;48.80;;;;;;4984255;28;20275;-84
2021/03/26 10:22:51;;;;;;;8.13;3.17;;;21.70;48.70;;;;;;5001250;28;20208;-84
2021/03/26 10:25:38;;;;;;;7.87;2.20;;;21.70;49.00;;;;;;4977702;28;20204;-86
2021/03/26 10:28:31;;;;;;;5.37;2.50;;;21.70;48.40;;;;;;4984542;28;20215;-84
2021/03/26 10:31:05;;;;;;;11.53;2.40;;;21.80;48.00;;;;;;4985554;28;20542;-91
2021/03/26 10:33:36;;;;;;;6.90;2.10;;;21.80;48.50;;;;;;5003181;28;20192;-90
2021/03/26 10:36:16;;;;;;;4.13;2.47;;;21.80;48.60;;;;;;4986541;28;20216;-89
2021/03/26 10:38:54;;;;;;;2.80;1.70;;;21.80;48.40;;;;;;4985997;28;20212;-88
2021/03/26 10:41:31;;;;;;;6.47;2.20;;;21.90;48.00;;;;;;5012089;22;20244;-87
2021/03/26 10:44:23;;;;;;;8.20;2.53;;;21.90;48.40;;;;;;4998526;28;20200;-89
2021/03/26 10:47:13;;;;;;;4.93;2.10;;;21.90;48.50;;;;;;4997310;28;20211;-93
2021/03/26 10:49:46;;;;;;;4.40;1.70;;;22.00;48.20;;;;;;4968669;28;20306;-88
2021/03/26 10:55:22;;;;;;;4.97;1.70;;;22.10;48.30;;;;;;4964160;28;20217;-87
2021/03/26 10:58:14;;;;;;;7.57;1.93;;;22.00;47.70;;;;;;4966608;28;20250;-89
2021/03/26 11:00:57;;;;;;;8.70;1.60;;;22.00;47.40;;;;;;4967025;28;20265;-88
2021/03/26 11:03:52;;;;;;;3.60;1.83;;;22.10;47.90;;;;;;4949045;28;20201;-84
2021/03/26 11:06:42;;;;;;;4.43;1.73;;;22.10;47.80;;;;;;4964919;28;20231;-88
2021/03/26 11:09:28;;;;;;;4.57;1.60;;;22.20;47.70;;;;;;4965392;28;20208;-86
2021/03/26 11:12:19;;;;;;;4.80;1.40;;;22.10;47.60;;;;;;4966300;28;20197;-87
2021/03/26 11:15:06;;;;;;;4.50;1.40;;;22.20;47.40;;;;;;4960224;28;20197;-89
2021/03/26 11:18:00;;;;;;;15.07;1.90;;;22.30;47.70;;;;;;4963804;28;20204;-86
2021/03/26 11:20:33;;;;;;;4.20;1.90;;;22.30;48.50;;;;;;4963063;28;20943;-85
2021/03/26 11:23:03;;;;;;;5.80;1.40;;;22.30;47.50;;;;;;4965186;28;20204;-84
2021/03/26 11:25:36;;;;;;;6.90;1.30;;;22.30;47.40;;;;;;4963450;28;20209;-89
2021/03/26 11:28:13;;;;;;;5.63;1.90;;;22.30;47.00;;;;;;4964573;28;20233;-87
2021/03/26 11:30:53;;;;;;;6.77;1.50;;;22.30;47.60;;;;;;4967174;28;20215;-86
2021/03/26 11:33:34;;;;;;;6.53;1.60;;;22.40;47.00;;;;;;4963983;28;20571;-83
2021/03/26 11:36:04;;;;;;;6.53;1.53;;;22.30;46.50;;;;;;4947177;28;20213;-82
2021/03/26 11:38:33;;;;;;;6.97;1.77;;;22.40;46.60;;;;;;4962503;28;20207;-81
2021/03/26 11:41:11;;;;;;;7.73;2.10;;;22.40;46.40;;;;;;4960024;28;20220;-82
2021/03/26 11:43:45;;;;;;;3.13;1.53;;;22.40;46.60;;;;;;4961317;28;22600;-84
2021/03/26 11:46:21;;;;;;;3.23;1.57;;;22.40;46.60;;;;;;4963048;28;20255;-83
2021/03/26 11:49:29;;;;;;;5.73;1.80;;;22.50;46.50;;;;;;4963030;28;20459;-82
2021/03/26 11:52:08;;;;;;;3.87;1.73;;;22.50;46.80;;;;;;4902243;29;20234;-83
2021/03/26 11:54:44;;;;;;;5.13;1.37;;;22.60;46.80;;;;;;4960167;28;20252;-84
2021/03/26 11:57:35;;;;;;;3.20;1.30;;;22.60;46.50;;;;;;4961870;28;20216;-82
2021/03/26 12:00:27;;;;;;;6.40;1.50;;;22.60;46.80;;;;;;4962608;28;20260;-85
2021/03/26 12:03:12;;;;;;;2.57;1.17;;;22.70;46.90;;;;;;4960731;28;20208;-85
2021/03/26 12:06:01;;;;;;;5.33;1.33;;;22.70;46.80;;;;;;4962474;28;20304;-84
2021/03/26 12:08:47;;;;;;;4.53;1.97;;;22.80;46.90;;;;;;4963404;28;20692;-88
2021/03/26 12:11:16;;;;;;;3.00;1.50;;;22.70;46.10;;;;;;4954241;28;20212;-84
2021/03/26 12:13:53;;;;;;;3.50;1.77;;;22.70;46.00;;;;;;4946371;28;21723;-86
2021/03/26 12:16:24;;;;;;;3.23;1.67;;;22.70;45.90;;;;;;4965194;28;20719;-93
2021/03/26 12:18:56;;;;;;;6.90;1.73;;;22.70;45.80;;;;;;4961181;28;20271;-86
2021/03/26 12:21:29;;;;;;;6.97;2.00;;;22.70;46.00;;;;;;4960994;28;20310;-83
2021/03/26 12:23:55;;;;;;;6.73;2.33;;;22.40;41.90;;;;;;4960642;28;20212;-82
2021/03/26 12:26:34;;;;;;;4.87;2.10;;;22.20;41.80;;;;;;4957239;28;21142;-81
2021/03/26 12:29:15;;;;;;;4.43;1.90;;;22.10;41.80;;;;;;4959040;28;20243;-82
2021/03/26 12:32:09;;;;;;;4.40;1.97;;;21.90;42.00;;;;;;4964064;28;20338;-81
2021/03/26 12:34:53;;;;;;;3.30;1.67;;;21.90;42.40;;;;;;4964950;28;20487;-81
2021/03/26 12:37:32;;;;;;;2.80;2.00;;;21.90;42.90;;;;;;4960510;28;20200;-81
2021/03/26 12:40:47;;;;;;;3.33;1.80;;;21.90;43.60;;;;;;4961769;28;20200;-81
2021/03/26 12:43:19;;;;;;;2.30;1.47;;;21.90;44.00;;;;;;4956866;28;20701;-81
2021/03/26 12:45:57;;;;;;;3.90;1.87;;;21.90;44.30;;;;;;4964274;28;20208;-81
2021/03/26 12:48:41;;;;;;;4.40;1.80;;;21.80;44.90;;;;;;4967315;28;20204;-79
2021/03/26 12:51:37;;;;;;;5.13;2.17;;;21.80;44.70;;;;;;4967430;28;20228;-79
2021/03/26 12:54:22;;;;;;;2.93;1.50;;;21.80;44.70;;;;;;4940500;28;20252;-79
2021/03/26 12:57:14;;;;;;;2.63;1.43;;;21.80;44.90;;;;;;4960554;28;20198;-84
2021/03/26 12:59:47;;;;;;;2.47;1.37;;;21.70;45.20;;;;;;4964313;28;20197;-87
2021/03/26 13:02:35;;;;;;;4.60;1.93;;;21.70;45.40;;;;;;4947412;28;20752;-84
2021/03/26 13:05:19;;;;;;;7.07;2.20;;;21.70;46.90;;;;;;4962143;28;20200;-84
2021/03/26 13:08:11;;;;;;;6.57;1.90;;;21.90;47.40;;;;;;4956632;28;20219;-84
2021/03/26 13:10:38;;;;;;;5.93;1.60;;;22.10;47.80;;;;;;4959931;28;20423;-83
2021/03/26 13:13:19;;;;;;;5.83;1.50;;;22.20;47.90;;;;;;4959301;28;20216;-83
2021/03/26 13:16:19;;;;;;;2.83;1.60;;;22.20;48.00;;;;;;4963584;28;20332;-84
2021/03/26 13:19:03;;;;;;;4.87;1.60;;;22.30;48.30;;;;;;4952751;28;20780;-82
2021/03/26 13:21:50;;;;;;;6.00;1.90;;;22.30;46.40;;;;;;4970255;28;20193;-81
2021/03/26 13:24:29;;;;;;;4.10;1.87;;;22.10;46.40;;;;;;4966284;28;20193;-81
2021/03/26 13:27:17;;;;;;;4.07;1.77;;;21.90;46.30;;;;;;4961427;28;20593;-82
2021/03/26 13:30:02;;;;;;;7.73;1.83;;;21.90;47.70;;;;;;4959526;28;20853;-84
2021/03/26 13:32:40;;;;;;;8.23;1.80;;;22.10;47.80;;;;;;4960843;28;20196;-82
2021/03/26 13:35:21;;;;;;;3.43;1.73;;;22.20;48.00;;;;;;4964300;28;20199;-83
2021/03/26 13:37:52;;;;;;;4.03;1.50;;;22.30;48.10;;;;;;4965196;28;20259;-84
2021/03/26 13:40:22;;;;;;;5.80;1.70;;;22.40;48.50;;;;;;4967074;28;20189;-83
2021/03/26 13:43:12;;;;;;;4.40;1.27;;;22.50;47.80;;;;;;4967081;28;20713;-83
2021/03/26 13:45:51;;;;;;;3.20;1.50;;;22.50;48.30;;;;;;4963602;28;20198;-83
2021/03/26 13:48:20;;;;;;;2.97;1.30;;;22.50;47.90;;;;;;4965070;28;20220;-82
2021/03/26 13:50:53;;;;;;;3.60;1.50;;;22.60;47.90;;;;;;4966668;28;20704;-83
2021/03/26 13:53:44;;;;;;;4.63;1.20;;;22.60;47.70;;;;;;4964872;28;20232;-85
2021/03/26 13:56:14;;;;;;;5.20;1.20;;;22.70;48.20;;;;;;4964212;28;20201;-84
2021/03/26 13:58:58;;;;;;;3.60;1.40;;;22.70;47.80;;;;;;4963677;28;20207;-82